Time;durP1;ratioP1;P1;durP2;ratioP2;P2;SDS_P1;SDS_P2;PMS_P1;PMS_P2;Temp;Humidity;BMP_temperature;BMP_pressure;BME280_temperature;BME280_humidity;BME280_pressure;Samples;Min_cycle;Max_cycle;Signal;HPM_P1;HPM_P2
2023/11/07 00:00:08;;;;;;;0.00;0.00;;;;;;;6.03;100.00;95612.88;1033850;28;20852;-72
2023/11/07 00:00:39;;;;;;;0.00;0.00;;;;;;;6.03;100.00;95618.09;1034268;28;20280;-75
2023/11/07 00:01:09;;;;;;;0.00;0.00;;;;;;;5.97;100.00;95606.81;1030751;28;20112;-71
2023/11/07 00:01:41;;;;;;;0.00;0.00;;;;;;;5.97;100.00;95617.25;1026594;28;20785;-73
2023/11/07 00:02:11;;;;;;;0.00;0.00;;;;;;;5.91;100.00;95605.13;1027228;28;20054;-74
2023/11/07 00:02:42;;;;;;;0.10;0.10;;;;;;;6.00;100.00;95623.78;1023262;28;20283;-73
2023/11/07 00:03:13;;;;;;;0.05;0.05;;;;;;;5.93;100.00;95608.28;1027999;28;20545;-72
2023/11/07 00:03:43;;;;;;;0.00;0.00;;;;;;;5.94;100.00;95612.50;1030741;28;20038;-71
2023/11/07 00:04:14;;;;;;;0.00;0.00;;;;;;;5.96;100.00;95612.25;1035031;28;20580;-73
2023/11/07 00:04:45;;;;;;;1.67;1.13;;;;;;;5.87;100.00;95604.81;1030914;28;20034;-72
2023/11/07 00:05:15;;;;;;;0.00;0.00;;;;;;;5.95;100.00;95618.50;1034927;28;20249;-72
2023/11/07 00:05:46;;;;;;;0.00;0.00;;;;;;;5.97;100.00;95614.63;1035051;28;20037;-73
2023/11/07 00:06:16;;;;;;;0.00;0.00;;;;;;;5.89;100.00;95602.75;1034995;28;20034;-73
2023/11/07 00:06:47;;;;;;;0.00;0.00;;;;;;;5.96;100.00;95618.25;1026696;28;20034;-73
2023/11/07 00:07:26;;;;;;;0.00;0.00;;;;;;;5.99;100.00;95617.78;1026881;28;20030;-72
2023/11/07 00:07:57;;;;;;;0.20;0.20;;;;;;;5.98;100.00;95618.81;1028143;28;20429;-72
2023/11/07 00:08:27;;;;;;;0.00;0.00;;;;;;;5.91;100.00;95602.53;1025164;28;20275;-70
2023/11/07 00:08:58;;;;;;;0.00;0.00;;;;;;;5.94;100.00;95611.72;1026692;28;20035;-72
2023/11/07 00:09:28;;;;;;;0.00;0.00;;;;;;;5.96;100.00;95617.47;1022590;29;20035;-72
2023/11/07 00:09:58;;;;;;;0.00;0.00;;;;;;;5.93;100.00;95618.72;1029705;28;20101;-72
2023/11/07 00:10:29;;;;;;;0.32;0.32;;;;;;;5.93;100.00;95613.50;1025920;28;20485;-73
2023/11/07 00:11:00;;;;;;;0.63;0.63;;;;;;;5.90;100.00;95619.97;1022784;29;20046;-73
2023/11/07 00:11:30;;;;;;;0.00;0.00;;;;;;;5.90;100.00;95617.38;1022730;29;20410;-74
2023/11/07 00:12:03;;;;;;;0.85;0.45;;;;;;;5.88;100.00;95614.19;1022230;28;20042;-72
2023/11/07 00:12:34;;;;;;;0.38;0.22;;;;;;;5.86;100.00;95620.66;1023085;28;20630;-74
2023/11/07 00:13:04;;;;;;;0.00;0.00;;;;;;;5.82;100.00;95609.91;1022598;29;20299;-74
2023/11/07 00:13:35;;;;;;;0.00;0.00;;;;;;;5.85;100.00;95616.47;1023046;28;20031;-75
2023/11/07 00:14:05;;;;;;;0.00;0.00;;;;;;;5.85;100.00;95619.88;1023068;28;20035;-74
2023/11/07 00:14:36;;;;;;;0.00;0.00;;;;;;;5.84;100.00;95614.91;1022871;28;20031;-74
2023/11/07 00:15:07;;;;;;;0.00;0.00;;;;;;;5.86;100.00;95629.25;1026544;28;20046;-71
2023/11/07 00:15:37;;;;;;;0.00;0.00;;;;;;;5.84;100.00;95620.13;1026671;28;20041;-73
2023/11/07 00:16:09;;;;;;;0.00;0.00;;;;;;;5.83;100.00;95626.31;1026776;28;20034;-73
2023/11/07 00:16:40;;;;;;;0.00;0.00;;;;;;;5.84;100.00;95625.31;1031417;28;20034;-75
2023/11/07 00:17:10;;;;;;;0.15;0.15;;;;;;;5.82;100.00;95625.53;1037249;28;20271;-73
2023/11/07 00:17:41;;;;;;;0.00;0.00;;;;;;;5.82;100.00;95625.53;1030878;28;20112;-72
2023/11/07 00:18:11;;;;;;;0.00;0.00;;;;;;;5.77;100.00;95619.44;1030144;28;20081;-72
2023/11/07 00:18:42;;;;;;;0.00;0.00;;;;;;;5.87;100.00;95625.63;1032994;28;20474;-73
2023/11/07 00:19:12;;;;;;;1.08;1.08;;;;;;;5.88;100.00;95624.59;1034780;28;20788;-72
2023/11/07 00:19:43;;;;;;;0.00;0.00;;;;;;;5.90;100.00;95625.16;1026458;28;20035;-73
2023/11/07 00:20:14;;;;;;;0.00;0.00;;;;;;;5.93;100.00;95625.75;1026717;28;20070;-73
2023/11/07 00:20:44;;;;;;;0.00;0.00;;;;;;;5.95;100.00;95627.09;1030095;28;20496;-71
2023/11/07 00:21:16;;;;;;;0.00;0.00;;;;;;;5.79;100.00;95602.56;1026975;28;20277;-73
2023/11/07 00:21:46;;;;;;;0.00;0.00;;;;;;;5.96;100.00;95630.47;1026421;28;20121;-72
2023/11/07 00:22:17;;;;;;;0.00;0.00;;;;;;;5.96;100.00;95622.66;1022798;29;20729;-73
2023/11/07 00:22:47;;;;;;;0.00;0.00;;;;;;;5.87;100.00;95615.22;1022731;28;20035;-75
2023/11/07 00:23:18;;;;;;;0.00;0.00;;;;;;;5.98;100.00;95636.25;1026787;28;20089;-73
2023/11/07 00:23:49;;;;;;;0.00;0.00;;;;;;;5.97;100.00;95630.25;1028956;28;20034;-72
2023/11/07 00:24:19;;;;;;;0.00;0.00;;;;;;;5.97;100.00;95629.44;1030782;28;20281;-74
2023/11/07 00:24:50;;;;;;;0.00;0.00;;;;;;;5.97;100.00;95632.88;1029317;28;20027;-72
2023/11/07 00:25:20;;;;;;;0.00;0.00;;;;;;;5.97;100.00;95632.06;1037095;28;20624;-73
2023/11/07 00:25:53;;;;;;;0.00;0.00;;;;;;;5.96;100.00;95627.88;1033565;28;20033;-71
2023/11/07 00:26:23;;;;;;;0.00;0.00;;;;;;;5.95;100.00;95632.31;1029562;28;20560;-74
2023/11/07 00:26:53;;;;;;;0.00;0.00;;;;;;;5.96;100.00;95633.88;1030770;28;20280;-72
2023/11/07 00:27:24;;;;;;;0.00;0.00;;;;;;;5.96;100.00;95638.28;1033152;28;20077;-73
2023/11/07 00:27:55;;;;;;;0.00;0.00;;;;;;;5.95;100.00;95639.31;1031372;28;20030;-72
2023/11/07 00:28:25;;;;;;;0.00;0.00;;;;;;;5.92;100.00;95640.56;1026802;28;20039;-73
2023/11/07 00:28:56;;;;;;;0.10;0.10;;;;;;;5.91;100.00;95639.75;1031817;28;20030;-73
2023/11/07 00:29:28;;;;;;;0.00;0.00;;;;;;;5.83;100.00;95621.91;1034785;28;20103;-73
2023/11/07 00:29:58;;;;;;;0.00;0.00;;;;;;;5.87;100.00;95632.66;1032642;28;20084;-73
2023/11/07 00:30:29;;;;;;;0.00;0.00;;;;;;;5.88;100.00;95627.22;1028368;28;20328;-72
2023/11/07 00:30:59;;;;;;;0.00;0.00;;;;;;;5.88;100.00;95632.41;1028925;28;20026;-71
2023/11/07 00:31:30;;;;;;;0.00;0.00;;;;;;;5.87;100.00;95633.44;1031206;28;20034;-75
2023/11/07 00:32:00;;;;;;;0.00;0.00;;;;;;;5.85;100.00;95637.31;1034842;28;20073;-73
2023/11/07 00:32:30;;;;;;;0.00;0.00;;;;;;;5.79;100.00;95631.22;1043334;28;20025;-75
2023/11/07 00:33:01;;;;;;;0.00;0.00;;;;;;;5.74;100.00;95623.34;1026656;28;20040;-74
2023/11/07 00:33:32;;;;;;;2.20;0.88;;;;;;;5.79;100.00;95628.63;1022666;29;20027;-73
2023/11/07 00:34:02;;;;;;;0.00;0.00;;;;;;;5.81;100.00;95639.59;1025517;28;20078;-72
2023/11/07 00:34:33;;;;;;;0.00;0.00;;;;;;;5.71;100.00;95626.41;1027109;28;20034;-73
2023/11/07 00:35:04;;;;;;;0.00;0.00;;;;;;;5.78;100.00;95639.28;1030992;28;20034;-74
2023/11/07 00:35:36;;;;;;;0.00;0.00;;;;;;;5.77;100.00;95632.47;1030826;28;20512;-73
2023/11/07 00:36:07;;;;;;;0.00;0.00;;;;;;;5.72;100.00;95633.19;1030623;28;20269;-74
2023/11/07 00:36:38;;;;;;;0.00;0.00;;;;;;;5.76;100.00;95630.91;1030715;28;20361;-74
2023/11/07 00:37:09;;;;;;;0.00;0.00;;;;;;;5.77;100.00;95632.47;1031813;28;20079;-75
2023/11/07 00:37:39;;;;;;;0.00;0.00;;;;;;;5.75;100.00;95631.94;1038906;28;20045;-73
2023/11/07 00:38:10;;;;;;;0.00;0.00;;;;;;;5.75;100.00;95630.13;1038801;28;20398;-74
2023/11/07 00:38:40;;;;;;;0.10;0.10;;;;;;;5.75;100.00;95640.53;1038738;28;20231;-74
2023/11/07 00:39:11;;;;;;;0.00;0.00;;;;;;;5.74;100.00;95633.75;1034562;28;20030;-72
2023/11/07 00:39:41;;;;;;;0.00;0.00;;;;;;;5.74;100.00;95641.56;1034566;28;20030;-72
2023/11/07 00:40:12;;;;;;;0.00;0.00;;;;;;;5.70;100.00;95632.66;1030703;28;20034;-74
2023/11/07 00:40:43;;;;;;;0.10;0.10;;;;;;;5.71;100.00;95630.81;1030250;28;20041;-74
2023/11/07 00:41:13;;;;;;;0.00;0.00;;;;;;;5.70;100.00;95635.25;1038950;28;20272;-74
2023/11/07 00:41:44;;;;;;;0.00;0.00;;;;;;;5.67;100.00;95630.50;1038800;28;20072;-73
2023/11/07 00:42:14;;;;;;;0.00;0.00;;;;;;;5.66;100.00;95634.91;1034599;28;20038;-73
2023/11/07 00:42:45;;;;;;;0.00;0.00;;;;;;;5.65;100.00;95633.31;1030493;28;20447;-73
2023/11/07 00:43:15;;;;;;;0.00;0.00;;;;;;;5.60;100.00;95625.44;1027068;28;20078;-73
2023/11/07 00:43:48;;;;;;;0.00;0.00;;;;;;;5.61;100.00;95627.00;1022811;28;20047;-72
2023/11/07 00:44:18;;;;;;;0.00;0.00;;;;;;;5.66;100.00;95636.72;1025127;28;20026;-73
2023/11/07 00:44:49;;;;;;;0.00;0.00;;;;;;;5.62;100.00;95633.00;1022452;29;20279;-73
2023/11/07 00:45:19;;;;;;;0.00;0.00;;;;;;;5.57;100.00;95625.91;1030928;28;20341;-72
2023/11/07 00:45:49;;;;;;;0.00;0.00;;;;;;;5.66;100.00;95632.28;1028651;28;20397;-73
2023/11/07 00:46:20;;;;;;;0.00;0.00;;;;;;;5.66;100.00;95627.09;1026807;28;20438;-74
2023/11/07 00:46:51;;;;;;;0.00;0.00;;;;;;;5.59;100.00;95633.47;1030752;28;20026;-72
2023/11/07 00:47:21;;;;;;;0.00;0.00;;;;;;;5.65;100.00;95645.56;1031101;28;20113;-74
2023/11/07 00:47:52;;;;;;;0.00;0.00;;;;;;;5.64;100.00;95638.78;1029346;28;20026;-74
2023/11/07 00:48:23;;;;;;;0.00;0.00;;;;;;;5.57;100.00;95625.13;1026526;28;20031;-73
2023/11/07 00:48:53;;;;;;;0.00;0.00;;;;;;;5.62;100.00;95633.00;1020152;28;20703;-74
2023/11/07 00:49:24;;;;;;;0.00;0.00;;;;;;;5.60;100.00;95641.06;1027324;28;20511;-72
2023/11/07 00:49:54;;;;;;;0.00;0.00;;;;;;;5.61;100.00;95641.84;1026432;28;20030;-71
2023/11/07 00:50:25;;;;;;;0.00;0.00;;;;;;;5.59;100.00;95643.88;1026178;28;20062;-73
2023/11/07 00:50:55;;;;;;;0.00;0.00;;;;;;;5.56;100.00;95641.75;1034751;28;20661;-73
2023/11/07 00:51:26;;;;;;;0.00;0.00;;;;;;;5.59;100.00;95643.88;1034746;28;20013;-74
2023/11/07 00:51:59;;;;;;;0.00;0.00;;;;;;;5.57;100.00;95643.34;1034692;28;20029;-72
2023/11/07 00:52:29;;;;;;;0.00;0.00;;;;;;;5.60;100.00;95645.44;1036403;28;20284;-73
2023/11/07 00:53:00;;;;;;;0.00;0.00;;;;;;;5.58;100.00;95639.69;1034255;28;20767;-74
2023/11/07 00:53:30;;;;;;;0.03;0.03;;;;;;;5.58;100.00;95642.31;1033072;28;20470;-71
2023/11/07 00:54:01;;;;;;;0.05;0.05;;;;;;;5.56;100.00;95641.75;1032959;28;20124;-73
2023/11/07 00:54:31;;;;;;;0.00;0.00;;;;;;;5.56;100.00;95636.53;1034042;28;20106;-73
2023/11/07 00:55:02;;;;;;;0.00;0.00;;;;;;;5.54;100.00;95636.78;1034579;28;20026;-73
2023/11/07 00:55:32;;;;;;;0.00;0.00;;;;;;;5.53;100.00;95639.59;1038864;28;20061;-74
2023/11/07 00:56:03;;;;;;;0.00;0.00;;;;;;;5.51;100.00;95642.44;1040747;28;20033;-74
2023/11/07 00:56:33;;;;;;;0.98;0.88;;;;;;;5.53;100.00;95640.38;1046995;28;20037;-72
2023/11/07 00:57:04;;;;;;;0.00;0.00;;;;;;;5.53;100.00;95642.19;1042767;28;20063;-71
2023/11/07 00:57:34;;;;;;;0.00;0.00;;;;;;;5.51;100.00;95642.44;1042706;28;20447;-74
2023/11/07 00:58:05;;;;;;;0.10;0.10;;;;;;;5.47;100.00;95641.34;1041773;28;20036;-74
2023/11/07 00:58:36;;;;;;;0.00;0.00;;;;;;;5.48;100.00;95642.13;1034729;28;20438;-74
2023/11/07 00:59:06;;;;;;;0.00;0.00;;;;;;;5.45;100.00;95648.56;1030513;28;20026;-71
2023/11/07 00:59:36;;;;;;;0.00;0.00;;;;;;;5.42;100.00;95647.22;1030534;28;20049;-72
2023/11/07 01:00:07;;;;;;;0.00;0.00;;;;;;;5.41;100.00;95645.66;1034026;28;20045;-75
2023/11/07 01:00:38;;;;;;;0.43;0.43;;;;;;;5.40;100.00;95648.50;1038282;28;20521;-72
2023/11/07 01:01:08;;;;;;;0.00;0.00;;;;;;;5.36;100.00;95645.53;1042595;28;20036;-73
2023/11/07 01:01:39;;;;;;;0.00;0.00;;;;;;;5.40;100.00;95648.50;1034578;28;20034;-73
2023/11/07 01:02:11;;;;;;;0.00;0.00;;;;;;;5.38;100.00;95648.72;1034160;28;20029;-72
2023/11/07 01:02:42;;;;;;;0.00;0.00;;;;;;;5.39;100.00;95650.28;1030312;28;20037;-75
2023/11/07 01:03:12;;;;;;;0.00;0.00;;;;;;;5.36;100.00;95644.75;1026759;28;20270;-76
2023/11/07 01:03:44;;;;;;;0.00;0.00;;;;;;;5.37;100.00;95652.34;1022768;28;20038;-72
2023/11/07 01:04:14;;;;;;;0.00;0.00;;;;;;;5.35;100.00;95653.59;1026694;28;20037;-75
2023/11/07 01:04:45;;;;;;;0.00;0.00;;;;;;;5.41;100.00;95657.88;1034428;28;20275;-72
2023/11/07 01:05:15;;;;;;;0.00;0.00;;;;;;;5.33;100.00;95643.44;1030852;28;20038;-71
2023/11/07 01:05:45;;;;;;;0.00;0.00;;;;;;;5.37;100.00;95654.94;1038659;28;20045;-73
2023/11/07 01:06:16;;;;;;;0.00;0.00;;;;;;;5.38;100.00;95659.13;1038688;28;20033;-72
2023/11/07 01:06:47;;;;;;;0.00;0.00;;;;;;;5.38;100.00;95655.72;1032823;28;20034;-74
2023/11/07 01:07:18;;;;;;;0.00;0.00;;;;;;;5.32;100.00;95643.63;1034639;28;20517;-73
2023/11/07 01:07:48;;;;;;;0.17;0.17;;;;;;;5.37;100.00;95660.16;1026574;28;20042;-72
2023/11/07 01:08:19;;;;;;;0.00;0.00;;;;;;;5.30;100.00;95649.09;1034572;28;20272;-73
2023/11/07 01:08:50;;;;;;;0.10;0.10;;;;;;;5.35;100.00;95661.41;1026447;28;20027;-73
2023/11/07 01:09:20;;;;;;;3.10;0.47;;;;;;;5.35;100.00;95653.59;1022563;28;20050;-73
2023/11/07 01:09:51;;;;;;;0.00;0.00;;;;;;;5.34;100.00;95654.63;1026522;28;20478;-72
2023/11/07 01:10:21;;;;;;;0.00;0.00;;;;;;;5.37;100.00;95656.75;1030444;28;20093;-72
2023/11/07 01:10:52;;;;;;;0.00;0.00;;;;;;;5.36;100.00;95658.53;1034116;28;20041;-73
2023/11/07 01:11:22;;;;;;;0.00;0.00;;;;;;;5.34;100.00;95652.81;1038704;28;20030;-73
2023/11/07 01:11:52;;;;;;;0.15;0.15;;;;;;;5.36;100.00;95657.75;1034326;28;20049;-73
2023/11/07 01:12:23;;;;;;;0.00;0.00;;;;;;;5.36;100.00;95652.56;1034444;28;20018;-73
2023/11/07 01:12:54;;;;;;;0.30;0.30;;;;;;;5.32;100.00;95651.44;1034526;28;20100;-73
2023/11/07 01:13:26;;;;;;;0.00;0.00;;;;;;;5.31;100.00;95648.06;1026211;28;20038;-74
2023/11/07 01:13:57;;;;;;;0.10;0.10;;;;;;;5.39;100.00;95654.69;1026386;28;20262;-75
2023/11/07 01:14:27;;;;;;;0.00;0.00;;;;;;;5.40;100.00;95657.09;1026436;28;20262;-72
2023/11/07 01:14:58;;;;;;;0.00;0.00;;;;;;;5.41;100.00;95660.47;1027272;28;20037;-72
2023/11/07 01:15:28;;;;;;;0.00;0.00;;;;;;;5.40;100.00;95654.47;1030457;28;20113;-71
2023/11/07 01:15:59;;;;;;;0.00;0.00;;;;;;;5.36;100.00;95649.97;1022464;28;20464;-73
2023/11/07 01:16:29;;;;;;;0.00;0.00;;;;;;;5.37;100.00;95657.53;1026372;28;20067;-74
2023/11/07 01:17:00;;;;;;;0.00;0.00;;;;;;;5.34;100.00;95658.00;1026390;28;20430;-75
2023/11/07 01:17:30;;;;;;;0.00;0.00;;;;;;;5.34;100.00;95652.81;1030547;28;20022;-73
2023/11/07 01:18:00;;;;;;;0.00;0.00;;;;;;;5.34;100.00;95654.63;1026412;28;20026;-72
2023/11/07 01:18:31;;;;;;;0.10;0.10;;;;;;;5.33;100.00;95656.44;1030397;28;20041;-74
2023/11/07 01:19:03;;;;;;;0.52;0.50;;;;;;;5.30;100.00;95650.88;1034685;28;20022;-72
2023/11/07 01:19:33;;;;;;;0.00;0.00;;;;;;;5.35;100.00;95656.97;1043004;28;20063;-74
2023/11/07 01:20:06;;;;;;;0.00;0.00;;;;;;;5.34;100.00;95658.00;1042529;28;20342;-73
2023/11/07 01:20:36;;;;;;;0.00;0.00;;;;;;;5.34;100.00;95652.81;1038000;28;20516;-73
2023/11/07 01:21:07;;;;;;;0.00;0.00;;;;;;;5.31;100.00;95648.06;1038593;28;20256;-72
2023/11/07 01:21:37;;;;;;;1.55;1.17;;;;;;;5.34;100.00;95652.81;1030333;28;20121;-73
2023/11/07 01:22:08;;;;;;;0.00;0.00;;;;;;;5.35;100.00;95658.78;1026177;28;20035;-73
2023/11/07 01:22:38;;;;;;;0.00;0.00;;;;;;;5.31;100.00;95655.88;1026366;28;20098;-71
2023/11/07 01:23:09;;;;;;;0.00;0.00;;;;;;;5.28;100.00;95653.72;1026473;28;20039;-72
2023/11/07 01:23:40;;;;;;;0.00;0.00;;;;;;;5.30;100.00;95661.28;1026430;28;20043;-75
2023/11/07 01:24:10;;;;;;;0.00;0.00;;;;;;;5.30;100.00;95659.50;1030598;28;20453;-73
2023/11/07 01:24:41;;;;;;;0.08;0.08;;;;;;;5.27;100.00;95657.34;1032947;28;20292;-72
2023/11/07 01:25:11;;;;;;;0.00;0.00;;;;;;;5.28;100.00;95658.13;1034557;28;20025;-73
2023/11/07 01:25:42;;;;;;;0.00;0.00;;;;;;;5.25;100.00;95659.38;1038712;28;20044;-71
2023/11/07 01:26:12;;;;;;;0.00;0.00;;;;;;;5.29;100.00;95663.09;1030436;28;20050;-74
2023/11/07 01:26:43;;;;;;;0.00;0.00;;;;;;;5.30;100.00;95656.06;1026619;28;20043;-73
2023/11/07 01:27:13;;;;;;;0.05;0.05;;;;;;;5.29;100.00;95657.09;1030478;28;20062;-72
2023/11/07 01:27:44;;;;;;;0.00;0.00;;;;;;;5.31;100.00;95657.69;1030174;28;20041;-73
2023/11/07 01:28:15;;;;;;;0.08;0.08;;;;;;;5.26;100.00;95640.13;1030294;28;20038;-73
2023/11/07 01:28:45;;;;;;;0.00;0.00;;;;;;;5.29;100.00;95657.09;1034210;28;20045;-73
2023/11/07 01:29:17;;;;;;;0.28;0.28;;;;;;;5.27;100.00;95656.56;1030531;28;20269;-74
2023/11/07 01:29:48;;;;;;;0.00;0.00;;;;;;;5.22;100.00;95649.44;1029900;28;20034;-72
2023/11/07 01:30:20;;;;;;;0.10;0.10;;;;;;;5.25;100.00;95656.78;1030410;28;20277;-72
2023/11/07 01:30:51;;;;;;;0.05;0.05;;;;;;;5.27;100.00;95652.16;1029920;28;20658;-72
2023/11/07 01:31:22;;;;;;;0.00;0.00;;;;;;;5.25;100.00;95656.78;1026454;28;20327;-75
2023/11/07 01:31:52;;;;;;;0.00;0.00;;;;;;;5.24;100.00;95657.81;1030313;28;20034;-73
2023/11/07 01:32:22;;;;;;;1.45;0.35;;;;;;;5.26;100.00;95654.97;1030555;28;20084;-71
2023/11/07 01:32:53;;;;;;;0.00;0.00;;;;;;;5.24;100.00;95655.22;1038613;28;20025;-71
2023/11/07 01:33:24;;;;;;;0.00;0.00;;;;;;;5.26;100.00;95660.16;1038664;28;20033;-72
2023/11/07 01:33:55;;;;;;;0.00;0.00;;;;;;;5.19;100.00;95639.50;1038766;28;20043;-74
2023/11/07 01:34:26;;;;;;;0.00;0.00;;;;;;;5.21;100.00;95653.06;1026244;28;20274;-72
2023/11/07 01:34:57;;;;;;;0.00;0.00;;;;;;;5.26;100.00;95655.75;1026720;28;20995;-73
2023/11/07 01:35:27;;;;;;;0.00;0.00;;;;;;;5.26;100.00;95657.56;1030881;28;20058;-71
2023/11/07 01:35:58;;;;;;;0.10;0.10;;;;;;;5.23;100.00;95651.03;1030407;28;20031;-73
2023/11/07 01:36:28;;;;;;;0.00;0.00;;;;;;;5.24;100.00;95657.81;1030598;28;20034;-74
2023/11/07 01:36:59;;;;;;;0.00;0.00;;;;;;;5.23;100.00;95653.63;1032170;28;20030;-71
2023/11/07 01:37:29;;;;;;;0.00;0.00;;;;;;;5.19;100.00;95649.88;1025577;28;20038;-74
2023/11/07 01:38:00;;;;;;;0.00;0.00;;;;;;;5.18;100.00;95659.50;1024154;28;20039;-74
2023/11/07 01:38:30;;;;;;;0.00;0.00;;;;;;;5.19;100.00;95655.09;1022656;28;20031;-74
2023/11/07 01:39:01;;;;;;;0.00;0.00;;;;;;;5.13;100.00;95650.81;1032235;28;20073;-71
2023/11/07 01:39:32;;;;;;;0.00;0.00;;;;;;;5.14;100.00;95652.41;1030416;28;20034;-72
2023/11/07 01:40:03;;;;;;;0.10;0.10;;;;;;;5.16;100.00;95658.97;1023682;28;20035;-73
2023/11/07 01:40:33;;;;;;;0.43;0.10;;;;;;;5.12;100.00;95649.25;1022966;28;20094;-73
2023/11/07 01:41:04;;;;;;;0.00;0.00;;;;;;;5.14;100.00;95657.63;1034442;28;20743;-72
2023/11/07 01:41:34;;;;;;;0.00;0.00;;;;;;;5.11;100.00;95664.06;1038329;28;20037;-72
2023/11/07 01:42:07;;;;;;;0.00;0.00;;;;;;;5.10;100.00;95656.50;1034533;28;20029;-72
2023/11/07 01:42:44;;;;;;;1.08;0.43;;;;;;;5.06;100.00;95663.16;1034546;28;20449;-74
2023/11/07 01:43:15;;;;;;;0.00;0.00;;;;;;;5.08;100.00;95664.50;1034495;28;20272;-74
2023/11/07 01:43:46;;;;;;;0.00;0.00;;;;;;;5.07;100.00;95662.94;1034513;28;20366;-72
2023/11/07 01:44:16;;;;;;;0.05;0.05;;;;;;;5.05;100.00;95659.75;1030665;28;20285;-71
2023/11/07 01:44:49;;;;;;;0.00;0.00;;;;;;;5.07;100.00;95662.16;1032408;28;20034;-71
2023/11/07 01:45:20;;;;;;;0.10;0.10;;;;;;;5.05;100.00;95664.19;1029162;28;20798;-74
2023/11/07 01:45:50;;;;;;;0.00;0.00;;;;;;;5.04;100.00;95662.59;1028608;28;20316;-72
2023/11/07 01:46:21;;;;;;;0.00;0.00;;;;;;;5.03;100.00;95663.59;1030861;28;20029;-73
2023/11/07 01:46:51;;;;;;;0.00;0.00;;;;;;;5.01;100.00;95663.06;1030785;28;20407;-72
2023/11/07 01:47:24;;;;;;;0.15;0.15;;;;;;;4.95;100.00;95654.34;1030111;28;20030;-73
2023/11/07 01:47:55;;;;;;;0.00;0.00;;;;;;;5.00;100.00;95666.66;1030485;28;20483;-72
2023/11/07 01:48:26;;;;;;;0.00;0.00;;;;;;;4.96;100.00;95661.13;1022330;29;20274;-74
2023/11/07 01:48:56;;;;;;;0.10;0.10;;;;;;;5.00;100.00;95662.28;1030432;28;20467;-73
2023/11/07 01:49:27;;;;;;;0.10;0.10;;;;;;;4.98;100.00;95653.91;1030201;28;20026;-72
2023/11/07 01:49:58;;;;;;;0.35;0.35;;;;;;;5.01;100.00;95663.06;1022368;29;20051;-72
2023/11/07 01:50:28;;;;;;;0.20;0.20;;;;;;;4.99;100.00;95655.47;1025867;28;20026;-72
2023/11/07 01:50:58;;;;;;;0.00;0.00;;;;;;;5.02;100.00;95655.03;1030232;28;20030;-73
2023/11/07 01:51:29;;;;;;;0.00;0.00;;;;;;;5.02;100.00;95649.03;1026165;28;20042;-73
2023/11/07 01:51:59;;;;;;;0.00;0.00;;;;;;;5.00;100.00;95645.84;1022414;29;20061;-75
2023/11/07 01:52:30;;;;;;;0.00;0.00;;;;;;;5.00;100.00;95646.69;1030220;28;20030;-71
2023/11/07 01:53:01;;;;;;;0.08;0.08;;;;;;;5.07;100.00;95651.75;1026241;28;20570;-73
2023/11/07 01:53:31;;;;;;;0.00;0.00;;;;;;;5.00;100.00;95645.84;1026133;28;20034;-74
2023/11/07 01:54:02;;;;;;;0.00;0.00;;;;;;;5.08;100.00;95655.91;1038519;28;20859;-73
2023/11/07 01:54:33;;;;;;;0.00;0.00;;;;;;;5.04;100.00;95660.00;1041867;28;20079;-74
2023/11/07 01:55:06;;;;;;;0.00;0.00;;;;;;;5.08;100.00;95655.91;1034403;28;21021;-73
2023/11/07 01:55:36;;;;;;;0.00;0.00;;;;;;;5.05;100.00;95657.16;1030840;28;20026;-73
2023/11/07 01:56:08;;;;;;;0.00;0.00;;;;;;;5.08;100.00;95655.91;1034649;28;20332;-71
2023/11/07 01:56:38;;;;;;;0.00;0.00;;;;;;;5.07;100.00;95652.53;1039156;28;20461;-74
2023/11/07 01:57:09;;;;;;;0.15;0.05;;;;;;;5.03;100.00;95646.22;1042754;28;20267;-73
2023/11/07 01:57:41;;;;;;;0.00;0.00;;;;;;;5.08;100.00;95650.72;1032976;28;20025;-72
2023/11/07 01:58:12;;;;;;;0.30;0.30;;;;;;;5.04;100.00;95641.81;1022507;29;20036;-73
2023/11/07 01:58:42;;;;;;;0.00;0.00;;;;;;;5.10;100.00;95653.91;1026389;28;20285;-74
2023/11/07 01:59:13;;;;;;;0.00;0.00;;;;;;;5.08;100.00;95648.13;1026208;28;20034;-71
2023/11/07 01:59:43;;;;;;;0.00;0.00;;;;;;;5.11;100.00;95647.66;1026216;28;20035;-75
2023/11/07 02:00:15;;;;;;;0.00;0.00;;;;;;;5.07;100.00;95642.13;1026516;28;20513;-74
2023/11/07 02:00:46;;;;;;;0.00;0.00;;;;;;;5.07;100.00;95636.94;1029822;28;20098;-73
2023/11/07 02:01:16;;;;;;;0.10;0.10;;;;;;;5.09;100.00;95645.28;1026541;28;20354;-73
2023/11/07 02:01:47;;;;;;;0.00;0.00;;;;;;;5.18;100.00;95654.31;1032693;28;20025;-72
2023/11/07 02:02:18;;;;;;;0.00;0.00;;;;;;;5.17;100.00;95649.34;1026548;28;20026;-73
2023/11/07 02:02:48;;;;;;;0.00;0.00;;;;;;;5.13;100.00;95643.00;1034295;28;20033;-74
2023/11/07 02:03:21;;;;;;;0.00;0.00;;;;;;;5.12;100.00;95638.84;1030408;28;20018;-72
2023/11/07 02:03:51;;;;;;;0.00;0.00;;;;;;;5.20;100.00;95644.47;1030390;28;20022;-72
2023/11/07 02:04:22;;;;;;;0.00;0.00;;;;;;;5.20;100.00;95646.28;1026434;28;20683;-73
2023/11/07 02:04:53;;;;;;;0.00;0.00;;;;;;;5.13;100.00;95636.03;1023281;28;20036;-71
2023/11/07 02:05:24;;;;;;;0.13;0.13;;;;;;;5.18;100.00;95648.31;1026621;28;20288;-74
2023/11/07 02:05:54;;;;;;;0.00;0.00;;;;;;;5.19;100.00;95642.88;1025477;28;20098;-70
2023/11/07 02:06:25;;;;;;;0.00;0.00;;;;;;;5.16;100.00;95645.16;1026334;28;20042;-71
2023/11/07 02:06:56;;;;;;;0.00;0.00;;;;;;;5.18;100.00;95645.72;1029814;28;20037;-72
2023/11/07 02:07:26;;;;;;;0.00;0.00;;;;;;;5.15;100.00;95639.16;1030394;28;20109;-75
2023/11/07 02:07:58;;;;;;;0.00;0.00;;;;;;;5.24;100.00;95642.19;1030377;28;20033;-71
2023/11/07 02:08:28;;;;;;;0.00;0.00;;;;;;;5.19;100.00;95634.28;1030696;28;20504;-74
2023/11/07 02:08:59;;;;;;;0.00;0.00;;;;;;;5.24;100.00;95639.59;1030681;28;20280;-72
2023/11/07 02:09:30;;;;;;;0.00;0.00;;;;;;;5.27;100.00;95641.75;1030352;28;20313;-73
2023/11/07 02:10:00;;;;;;;0.00;0.00;;;;;;;5.26;100.00;95647.94;1025987;28;20018;-75
2023/11/07 02:10:31;;;;;;;0.00;0.00;;;;;;;5.27;100.00;95643.56;1029981;28;20041;-73
2023/11/07 02:11:01;;;;;;;0.00;0.00;;;;;;;5.22;100.00;95628.63;1030677;28;20030;-73
2023/11/07 02:11:32;;;;;;;0.00;0.00;;;;;;;5.27;100.00;95641.75;1030454;28;20057;-72
2023/11/07 02:12:02;;;;;;;0.20;0.10;;;;;;;5.26;100.00;95640.13;1030055;28;20030;-72
2023/11/07 02:12:33;;;;;;;0.00;0.00;;;;;;;5.23;100.00;95630.22;1030391;28;20133;-73
2023/11/07 02:13:03;;;;;;;0.00;0.00;;;;;;;5.20;100.00;95626.28;1026322;28;20082;-72
2023/11/07 02:13:34;;;;;;;0.00;0.00;;;;;;;5.24;100.00;95638.81;1026058;28;20037;-74
2023/11/07 02:14:04;;;;;;;0.00;0.00;;;;;;;5.25;100.00;95638.56;1030167;28;20091;-70
2023/11/07 02:14:36;;;;;;;0.00;0.00;;;;;;;5.24;100.00;95639.59;1028523;28;20030;-73
2023/11/07 02:15:22;;;;;;;0.00;0.00;;;;;;;5.25;100.00;95640.38;1026210;28;20676;-73
2023/11/07 02:15:56;;;;;;;0.00;0.00;;;;;;;5.24;100.00;95634.41;1034205;28;20277;-74
2023/11/07 02:16:28;;;;;;;0.00;0.00;;;;;;;5.10;100.00;95614.88;1028905;28;20331;-72
2023/11/07 02:16:59;;;;;;;0.00;0.00;;;;;;;5.20;100.00;95635.88;1029161;28;20661;-72
2023/11/07 02:17:29;;;;;;;0.00;0.00;;;;;;;5.19;100.00;95636.88;1026467;28;20302;-72
2023/11/07 02:18:00;;;;;;;0.00;0.00;;;;;;;5.17;100.00;95636.34;1026943;28;20479;-76
2023/11/07 02:18:30;;;;;;;0.00;0.00;;;;;;;5.07;100.00;95620.53;1035373;28;20033;-72
2023/11/07 02:19:01;;;;;;;0.10;0.10;;;;;;;5.12;100.00;95629.22;1036220;28;20276;-72
2023/11/07 02:19:32;;;;;;;0.00;0.00;;;;;;;5.07;100.00;95617.94;1034439;28;20026;-73
2023/11/07 02:20:04;;;;;;;0.00;0.00;;;;;;;5.10;100.00;95631.28;1030079;28;20026;-72
2023/11/07 02:20:38;;;;;;;0.00;0.00;;;;;;;5.09;100.00;95631.50;1025860;28;20557;-71
2023/11/07 02:21:08;;;;;;;0.00;0.00;;;;;;;5.04;100.00;95621.00;1026159;28;20258;-74
2023/11/07 02:21:39;;;;;;;0.00;0.00;;;;;;;5.03;100.00;95625.41;1029759;28;20335;-72
2023/11/07 02:22:12;;;;;;;0.00;0.00;;;;;;;4.97;100.00;95615.94;1032294;28;20177;-74
2023/11/07 02:22:47;;;;;;;0.00;0.00;;;;;;;5.04;100.00;95621.00;1029513;28;20553;-72
2023/11/07 02:23:30;;;;;;;0.00;0.00;;;;;;;5.04;100.00;95623.59;1030625;28;20260;-73
2023/11/07 02:24:01;;;;;;;0.05;0.05;;;;;;;5.03;100.00;95622.81;1038816;28;20260;-74
2023/11/07 02:24:31;;;;;;;0.00;0.00;;;;;;;5.02;100.00;95623.81;1038745;28;20264;-72
2023/11/07 02:25:01;;;;;;;0.00;0.00;;;;;;;4.99;100.00;95632.06;1040516;28;20018;-72
2023/11/07 02:25:32;;;;;;;0.00;0.00;;;;;;;4.96;100.00;95619.53;1038736;28;20405;-73